sensor_id;sensor_type;location;lat;lon;timestamp;pressure;altitude;pressure_sealevel;temperature;humidity
59971;BME280;45825;45.434;9.116;2023-05-12T00:02:15;99911.75;;;14.66;100.00
59971;BME280;45825;45.434;9.116;2023-05-12T00:04:41;99911.78;;;14.78;100.00
59971;BME280;45825;45.434;9.116;2023-05-12T00:07:06;99904.53;;;14.80;100.00
59971;BME280;45825;45.434;9.116;2023-05-12T00:09:32;99906.34;;;14.91;100.00
59971;BME280;45825;45.434;9.116;2023-05-12T00:11:57;99907.44;;;14.88;100.00
59971;BME280;45825;45.434;9.116;2023-05-12T00:14:23;99911.16;;;14.74;100.00
59971;BME280;45825;45.434;9.116;2023-05-12T00:16:48;99911.53;;;14.81;100.00
59971;BME280;45825;45.434;9.116;2023-05-12T00:19:19;99910.19;;;14.75;100.00
59971;BME280;45825;45.434;9.116;2023-05-12T00:21:46;99900.19;;;14.67;100.00
59971;BME280;45825;45.434;9.116;2023-05-12T00:24:11;99894.78;;;14.69;100.00
59971;BME280;45825;45.434;9.116;2023-05-12T00:26:36;99905.00;;;14.74;100.00
59971;BME280;45825;45.434;9.116;2023-05-12T00:29:02;99896.50;;;14.82;100.00
59971;BME280;45825;45.434;9.116;2023-05-12T00:31:31;99891.91;;;14.84;100.00
59971;BME280;45825;45.434;9.116;2023-05-12T00:33:56;99895.38;;;14.84;100.00
59971;BME280;45825;45.434;9.116;2023-05-12T00:36:21;99885.53;;;14.86;100.00
59971;BME280;45825;45.434;9.116;2023-05-12T00:38:47;99888.19;;;14.86;100.00
59971;BME280;45825;45.434;9.116;2023-05-12T00:41:12;99892.97;;;14.92;100.00
59971;BME280;45825;45.434;9.116;2023-05-12T00:43:37;99885.38;;;14.88;100.00
59971;BME280;45825;45.434;9.116;2023-05-12T00:46:04;99878.16;;;14.90;100.00
59971;BME280;45825;45.434;9.116;2023-05-12T00:48:31;99880.69;;;14.91;100.00
59971;BME280;45825;45.434;9.116;2023-05-12T00:50:57;99892.72;;;14.84;100.00
59971;BME280;45825;45.434;9.116;2023-05-12T00:53:23;99878.56;;;14.85;100.00
59971;BME280;45825;45.434;9.116;2023-05-12T00:55:49;99883.09;;;14.83;100.00
59971;BME280;45825;45.434;9.116;2023-05-12T00:58:14;99884.31;;;14.79;100.00
59971;BME280;45825;45.434;9.116;2023-05-12T01:00:39;99878.91;;;14.80;100.00
59971;BME280;45825;45.434;9.116;2023-05-12T01:03:05;99878.91;;;14.80;100.00
59971;BME280;45825;45.434;9.116;2023-05-12T01:05:35;99876.13;;;14.82;100.00
59971;BME280;45825;45.434;9.116;2023-05-12T01:08:02;99877.69;;;14.62;100.00
59971;BME280;45825;45.434;9.116;2023-05-12T01:10:27;99874.69;;;14.66;100.00
59971;BME280;45825;45.434;9.116;2023-05-12T01:12:53;99876.63;;;14.53;100.00
59971;BME280;45825;45.434;9.116;2023-05-12T01:15:18;99877.53;;;14.52;100.00
59971;BME280;45825;45.434;9.116;2023-05-12T01:17:49;99867.22;;;14.49;100.00
59971;BME280;45825;45.434;9.116;2023-05-12T01:20:17;99869.25;;;14.57;100.00
59971;BME280;45825;45.434;9.116;2023-05-12T01:22:46;99874.69;;;14.55;100.00
59971;BME280;45825;45.434;9.116;2023-05-12T01:25:13;99871.69;;;14.60;100.00
59971;BME280;45825;45.434;9.116;2023-05-12T01:27:40;99871.91;;;14.57;100.00
59971;BME280;45825;45.434;9.116;2023-05-12T01:30:07;99869.03;;;14.60;100.00
59971;BME280;45825;45.434;9.116;2023-05-12T01:32:34;99867.56;;;14.56;100.00
59971;BME280;45825;45.434;9.116;2023-05-12T01:34:59;99869.75;;;14.62;100.00
59971;BME280;45825;45.434;9.116;2023-05-12T01:37:25;99866.03;;;14.64;100.00
59971;BME280;45825;45.434;9.116;2023-05-12T01:39:51;99868.09;;;14.72;100.00
59971;BME280;45825;45.434;9.116;2023-05-12T01:42:17;99867.56;;;14.67;100.00
59971;BME280;45825;45.434;9.116;2023-05-12T01:44:42;99865.66;;;14.69;100.00
59971;BME280;45825;45.434;9.116;2023-05-12T01:47:07;99870.22;;;14.67;100.00
59971;BME280;45825;45.434;9.116;2023-05-12T01:49:35;99864.44;;;14.62;100.00
59971;BME280;45825;45.434;9.116;2023-05-12T01:52:01;99864.31;;;14.52;100.00
59971;BME280;45825;45.434;9.116;2023-05-12T01:54:26;99863.38;;;14.42;100.00
59971;BME280;45825;45.434;9.116;2023-05-12T01:56:51;99864.91;;;14.44;100.00
59971;BME280;45825;45.434;9.116;2023-05-12T01:59:16;99863.25;;;14.43;100.00
59971;BME280;45825;45.434;9.116;2023-05-12T02:01:42;99864.31;;;14.29;100.00
59971;BME280;45825;45.434;9.116;2023-05-12T02:04:07;99860.47;;;14.22;100.00
59971;BME280;45825;45.434;9.116;2023-05-12T02:06:33;99854.41;;;14.08;100.00
59971;BME280;45825;45.434;9.116;2023-05-12T02:08:58;99864.06;;;14.21;100.00
59971;BME280;45825;45.434;9.116;2023-05-12T02:11:23;99869.22;;;14.22;100.00
59971;BME280;45825;45.434;9.116;2023-05-12T02:13:49;99861.56;;;14.31;100.00
59971;BME280;45825;45.434;9.116;2023-05-12T02:16:14;99871.06;;;14.33;100.00
59971;BME280;45825;45.434;9.116;2023-05-12T02:18:39;99859.25;;;14.37;100.00
59971;BME280;45825;45.434;9.116;2023-05-12T02:21:05;99859.75;;;14.31;100.00
59971;BME280;45825;45.434;9.116;2023-05-12T02:23:30;99860.59;;;14.32;100.00
59971;BME280;45825;45.434;9.116;2023-05-12T02:25:56;99862.16;;;14.34;100.00
59971;BME280;45825;45.434;9.116;2023-05-12T02:28:21;99861.66;;;14.41;100.00
59971;BME280;45825;45.434;9.116;2023-05-12T02:30:48;99867.81;;;14.41;100.00
59971;BME280;45825;45.434;9.116;2023-05-12T02:33:14;99864.69;;;14.36;100.00
59971;BME280;45825;45.434;9.116;2023-05-12T02:35:40;99868.16;;;14.36;100.00
59971;BME280;45825;45.434;9.116;2023-05-12T02:38:06;99863.50;;;14.40;100.00
59971;BME280;45825;45.434;9.116;2023-05-12T02:40:31;99870.09;;;14.34;100.00
59971;BME280;45825;45.434;9.116;2023-05-12T02:42:56;99867.09;;;14.28;100.00
59971;BME280;45825;45.434;9.116;2023-05-12T02:45:22;99865.78;;;14.33;100.00
59971;BME280;45825;45.434;9.116;2023-05-12T02:47:47;99868.06;;;14.38;100.00
59971;BME280;45825;45.434;9.116;2023-05-12T02:50:13;99870.00;;;14.36;100.00
59971;BME280;45825;45.434;9.116;2023-05-12T02:52:38;99864.19;;;14.31;100.00
59971;BME280;45825;45.434;9.116;2023-05-12T02:55:03;99868.41;;;14.33;100.00
59971;BME280;45825;45.434;9.116;2023-05-12T02:57:29;99863.34;;;14.30;100.00
59971;BME280;45825;45.434;9.116;2023-05-12T03:00:00;99866.94;;;14.29;100.00
59971;BME280;45825;45.434;9.116;2023-05-12T03:02:26;99859.00;;;14.29;100.00
59971;BME280;45825;45.434;9.116;2023-05-12T03:04:51;99866.13;;;14.40;100.00
59971;BME280;45825;45.434;9.116;2023-05-12T03:07:17;99858.91;;;14.42;100.00
59971;BME280;45825;45.434;9.116;2023-05-12T03:09:42;99865.28;;;14.51;100.00
59971;BME280;45825;45.434;9.116;2023-05-12T03:12:08;99861.91;;;14.49;100.00
59971;BME280;45825;45.434;9.116;2023-05-12T03:14:33;99861.66;;;14.41;100.00
59971;BME280;45825;45.434;9.116;2023-05-12T03:16:58;99861.78;;;14.28;100.00
59971;BME280;45825;45.434;9.116;2023-05-12T03:19:23;99864.44;;;14.39;100.00
59971;BME280;45825;45.434;9.116;2023-05-12T03:21:49;99863.59;;;14.27;100.00
59971;BME280;45825;45.434;9.116;2023-05-12T03:24:14;99863.50;;;14.40;100.00
59971;BME280;45825;45.434;9.116;2023-05-12T03:26:40;99863.94;;;14.45;100.00
59971;BME280;45825;45.434;9.116;2023-05-12T03:29:05;99863.34;;;14.30;100.00
59971;BME280;45825;45.434;9.116;2023-05-12T03:31:31;99865.06;;;14.31;100.00
59971;BME280;45825;45.434;9.116;2023-05-12T03:33:56;99866.75;;;14.32;100.00
59971;BME280;45825;45.434;9.116;2023-05-12T03:36:21;99859.84;;;14.18;100.00
59971;BME280;45825;45.434;9.116;2023-05-12T03:38:47;99857.47;;;14.27;100.00
59971;BME280;45825;45.434;9.116;2023-05-12T03:41:13;99865.88;;;14.32;100.00
59971;BME280;45825;45.434;9.116;2023-05-12T03:43:38;99858.44;;;14.25;100.00
59971;BME280;45825;45.434;9.116;2023-05-12T03:46:04;99862.50;;;14.18;100.00
59971;BME280;45825;45.434;9.116;2023-05-12T03:48:29;99852.28;;;14.25;100.00
59971;BME280;45825;45.434;9.116;2023-05-12T03:50:55;99860.13;;;14.27;100.00
59971;BME280;45825;45.434;9.116;2023-05-12T03:53:20;99849.63;;;14.25;100.00
59971;BME280;45825;45.434;9.116;2023-05-12T03:55:45;99850.59;;;14.35;100.00
59971;BME280;45825;45.434;9.116;2023-05-12T03:58:11;99850.34;;;14.27;100.00
59971;BME280;45825;45.434;9.116;2023-05-12T04:00:36;99847.34;;;14.32;100.00
59971;BME280;45825;45.434;9.116;2023-05-12T04:03:01;99845.31;;;14.24;100.00
59971;BME280;45825;45.434;9.116;2023-05-12T04:05:27;99847.25;;;14.22;100.00
59971;BME280;45825;45.434;9.116;2023-05-12T04:07:52;99849.75;;;14.23;100.00
59971;BME280;45825;45.434;9.116;2023-05-12T04:10:17;99850.59;;;14.24;100.00
59971;BME280;45825;45.434;9.116;2023-05-12T04:12:43;99848.56;;;14.28;100.00
59971;BME280;45825;45.434;9.116;2023-05-12T04:15:08;99859.50;;;14.23;100.00
59971;BME280;45825;45.434;9.116;2023-05-12T04:17:34;99853.34;;;14.22;100.00
59971;BME280;45825;45.434;9.116;2023-05-12T04:19:59;99855.38;;;14.19;100.00
59971;BME280;45825;45.434;9.116;2023-05-12T04:22:25;99851.31;;;14.15;100.00
59971;BME280;45825;45.434;9.116;2023-05-12T04:24:50;99851.06;;;14.18;100.00
59971;BME280;45825;45.434;9.116;2023-05-12T04:27:16;99857.22;;;14.18;100.00
59971;BME280;45825;45.434;9.116;2023-05-12T04:29:41;99861.78;;;14.16;100.00
59971;BME280;45825;45.434;9.116;2023-05-12T04:32:06;99866.13;;;14.17;100.00
59971;BME280;45825;45.434;9.116;2023-05-12T04:34:32;99868.88;;;14.27;100.00
59971;BME280;45825;45.434;9.116;2023-05-12T04:36:57;99859.88;;;14.30;100.00
59971;BME280;45825;45.434;9.116;2023-05-12T04:39:22;99859.97;;;14.28;100.00
59971;BME280;45825;45.434;9.116;2023-05-12T04:41:48;99862.88;;;14.25;100.00
59971;BME280;45825;45.434;9.116;2023-05-12T04:44:13;99866.47;;;14.24;100.00
59971;BME280;45825;45.434;9.116;2023-05-12T04:46:38;99870.44;;;14.30;100.00
59971;BME280;45825;45.434;9.116;2023-05-12T04:49:03;99870.34;;;14.31;100.00
59971;BME280;45825;45.434;9.116;2023-05-12T04:51:29;99871.19;;;14.43;100.00
59971;BME280;45825;45.434;9.116;2023-05-12T04:53:54;99873.00;;;14.54;100.00
59971;BME280;45825;45.434;9.116;2023-05-12T04:56:19;99875.75;;;14.64;100.00
59971;BME280;45825;45.434;9.116;2023-05-12T04:58:46;99879.00;;;14.56;100.00
59971;BME280;45825;45.434;9.116;2023-05-12T05:01:11;99879.25;;;14.64;100.00
59971;BME280;45825;45.434;9.116;2023-05-12T05:03:38;99880.44;;;14.49;100.00
59971;BME280;45825;45.434;9.116;2023-05-12T05:06:03;99884.41;;;14.55;100.00
59971;BME280;45825;45.434;9.116;2023-05-12T05:08:29;99890.66;;;14.42;100.00
59971;BME280;45825;45.434;9.116;2023-05-12T05:10:54;99888.13;;;14.41;100.00
59971;BME280;45825;45.434;9.116;2023-05-12T05:13:20;99883.69;;;14.52;100.00
59971;BME280;45825;45.434;9.116;2023-05-12T05:15:52;99892.50;;;14.53;100.00
59971;BME280;45825;45.434;9.116;2023-05-12T05:18:17;99891.03;;;14.49;100.00
59971;BME280;45825;45.434;9.116;2023-05-12T05:20:43;99892.97;;;14.58;100.00
59971;BME280;45825;45.434;9.116;2023-05-12T05:23:10;99889.34;;;14.71;100.00
59971;BME280;45825;45.434;9.116;2023-05-12T05:25:35;99888.91;;;14.77;100.00
59971;BME280;45825;45.434;9.116;2023-05-12T05:28:00;99887.56;;;14.83;100.00
59971;BME280;45825;45.434;9.116;2023-05-12T05:30:26;99889.88;;;14.76;100.00
59971;BME280;45825;45.434;9.116;2023-05-12T05:32:51;99891.16;;;14.70;100.00
59971;BME280;45825;45.434;9.116;2023-05-12T05:35:17;99889.34;;;14.71;100.00
59971;BME280;45825;45.434;9.116;2023-05-12T05:37:42;99884.78;;;14.73;100.00
59971;BME280;45825;45.434;9.116;2023-05-12T05:40:08;99896.31;;;14.72;100.00
59971;BME280;45825;45.434;9.116;2023-05-12T05:42:34;99890.31;;;14.70;100.00
59971;BME280;45825;45.434;9.116;2023-05-12T05:44:59;99890.59;;;14.78;100.00
59971;BME280;45825;45.434;9.116;2023-05-12T05:47:24;99891.91;;;14.84;100.00
59971;BME280;45825;45.434;9.116;2023-05-12T05:49:52;99897.31;;;14.82;100.00
59971;BME280;45825;45.434;9.116;2023-05-12T05:52:17;99895.75;;;14.91;100.00
59971;BME280;45825;45.434;9.116;2023-05-12T05:54:42;99894.19;;;14.88;100.00
59971;BME280;45825;45.434;9.116;2023-05-12T05:57:08;99899.00;;;14.83;100.00
59971;BME280;45825;45.434;9.116;2023-05-12T05:59:33;99900.31;;;14.89;100.00
59971;BME280;45825;45.434;9.116;2023-05-12T06:01:58;99903.47;;;14.83;100.00
59971;BME280;45825;45.434;9.116;2023-05-12T06:04:24;99909.59;;;14.83;100.00
59971;BME280;45825;45.434;9.116;2023-05-12T06:06:49;99908.28;;;14.77;100.00
59971;BME280;45825;45.434;9.116;2023-05-12T06:09:14;99910.44;;;14.72;100.00
59971;BME280;45825;45.434;9.116;2023-05-12T06:11:40;99907.53;;;14.64;100.00
59971;BME280;45825;45.434;9.116;2023-05-12T06:14:06;99909.47;;;14.62;100.00
59971;BME280;45825;45.434;9.116;2023-05-12T06:16:31;99907.88;;;14.71;100.00
59971;BME280;45825;45.434;9.116;2023-05-12T06:18:56;99911.06;;;14.76;100.00
59971;BME280;45825;45.434;9.116;2023-05-12T06:21:22;99905.25;;;14.82;100.00
59971;BME280;45825;45.434;9.116;2023-05-12T06:23:47;99917.16;;;14.99;100.00
59971;BME280;45825;45.434;9.116;2023-05-12T06:26:12;99914.28;;;15.02;100.00
59971;BME280;45825;45.434;9.116;2023-05-12T06:28:38;99923.06;;;15.03;100.00
59971;BME280;45825;45.434;9.116;2023-05-12T06:31:06;99928.84;;;15.19;100.00
59971;BME280;45825;45.434;9.116;2023-05-12T06:33:32;99916.31;;;15.10;100.00
59971;BME280;45825;45.434;9.116;2023-05-12T06:35:57;99928.13;;;15.17;100.00
59971;BME280;45825;45.434;9.116;2023-05-12T06:38:23;99931.38;;;15.09;100.00
59971;BME280;45825;45.434;9.116;2023-05-12T06:40:48;99930.53;;;15.09;100.00
59971;BME280;45825;45.434;9.116;2023-05-12T06:43:13;99931.00;;;15.14;100.00
59971;BME280;45825;45.434;9.116;2023-05-12T06:45:39;99935.34;;;15.04;100.00
59971;BME280;45825;45.434;9.116;2023-05-12T06:48:04;99943.78;;;15.09;100.00
59971;BME280;45825;45.434;9.116;2023-05-12T06:50:30;99938.16;;;14.91;100.00
59971;BME280;45825;45.434;9.116;2023-05-12T06:52:55;99940.28;;;14.97;100.00
59971;BME280;45825;45.434;9.116;2023-05-12T06:55:21;99938.50;;;14.86;100.00
59971;BME280;45825;45.434;9.116;2023-05-12T06:57:47;99938.38;;;14.88;100.00
59971;BME280;45825;45.434;9.116;2023-05-12T07:00:13;99937.78;;;14.96;100.00
59971;BME280;45825;45.434;9.116;2023-05-12T07:02:38;99935.84;;;14.98;100.00
59971;BME280;45825;45.434;9.116;2023-05-12T07:05:04;99930.41;;;14.99;100.00
59971;BME280;45825;45.434;9.116;2023-05-12T07:07:29;99934.03;;;14.98;100.00
59971;BME280;45825;45.434;9.116;2023-05-12T07:09:54;99931.25;;;15.00;100.00
59971;BME280;45825;45.434;9.116;2023-05-12T07:12:21;99940.19;;;14.99;100.00
59971;BME280;45825;45.434;9.116;2023-05-12T07:14:46;99927.91;;;14.98;100.00
59971;BME280;45825;45.434;9.116;2023-05-12T07:17:11;99936.81;;;14.97;100.00
59971;BME280;45825;45.434;9.116;2023-05-12T07:19:37;99936.31;;;14.91;100.00
59971;BME280;45825;45.434;9.116;2023-05-12T07:22:04;99934.63;;;14.90;100.00
59971;BME280;45825;45.434;9.116;2023-05-12T07:24:29;99932.09;;;15.00;100.00
59971;BME280;45825;45.434;9.116;2023-05-12T07:26:56;99930.91;;;15.04;100.00
59971;BME280;45825;45.434;9.116;2023-05-12T07:29:21;99944.97;;;15.16;100.00
59971;BME280;45825;45.434;9.116;2023-05-12T07:31:47;99949.91;;;15.21;100.00
59971;BME280;45825;45.434;9.116;2023-05-12T07:34:12;99950.50;;;15.13;100.00
59971;BME280;45825;45.434;9.116;2023-05-12T07:36:37;99951.25;;;15.04;100.00
59971;BME280;45825;45.434;9.116;2023-05-12T07:39:03;99954.13;;;15.23;100.00
59971;BME280;45825;45.434;9.116;2023-05-12T07:41:28;99951.59;;;15.11;100.00
59971;BME280;45825;45.434;9.116;2023-05-12T07:43:54;99949.69;;;15.13;100.00
59971;BME280;45825;45.434;9.116;2023-05-12T07:46:19;99958.00;;;15.08;100.00
59971;BME280;45825;45.434;9.116;2023-05-12T07:48:44;99947.25;;;15.09;100.00
59971;BME280;45825;45.434;9.116;2023-05-12T07:51:09;99953.03;;;15.26;100.00
59971;BME280;45825;45.434;9.116;2023-05-12T07:53:35;99954.13;;;15.23;100.00
59971;BME280;45825;45.434;9.116;2023-05-12T07:56:01;99959.31;;;15.25;100.00
59971;BME280;45825;45.434;9.116;2023-05-12T07:58:26;99958.78;;;15.31;100.00
59971;BME280;45825;45.434;9.116;2023-05-12T08:00:51;99954.34;;;15.32;100.00
59971;BME280;45825;45.434;9.116;2023-05-12T08:03:18;99951.75;;;15.53;100.00
59971;BME280;45825;45.434;9.116;2023-05-12T08:05:44;99950.97;;;15.41;100.00
59971;BME280;45825;45.434;9.116;2023-05-12T08:08:09;99951.19;;;15.38;100.00
59971;BME280;45825;45.434;9.116;2023-05-12T08:10:41;99949.66;;;15.35;100.00
59971;BME280;45825;45.434;9.116;2023-05-12T08:13:06;99954.69;;;15.39;100.00
59971;BME280;45825;45.434;9.116;2023-05-12T08:15:31;99954.66;;;15.50;100.00
59971;BME280;45825;45.434;9.116;2023-05-12T08:17:56;99950.44;;;15.47;100.00
59971;BME280;45825;45.434;9.116;2023-05-12T08:20:22;99959.88;;;15.40;100.00
59971;BME280;45825;45.434;9.116;2023-05-12T08:22:47;99959.75;;;15.30;100.00
59971;BME280;45825;45.434;9.116;2023-05-12T08:25:14;99960.97;;;15.26;100.00
59971;BME280;45825;45.434;9.116;2023-05-12T08:27:40;99956.50;;;15.38;100.00
59971;BME280;45825;45.434;9.116;2023-05-12T08:30:06;99955.16;;;15.55;100.00
59971;BME280;45825;45.434;9.116;2023-05-12T08:32:31;99963.22;;;15.54;100.00
59971;BME280;45825;45.434;9.116;2023-05-12T08:34:56;99963.56;;;15.60;100.00
59971;BME280;45825;45.434;9.116;2023-05-12T08:37:22;99963.00;;;15.45;100.00
59971;BME280;45825;45.434;9.116;2023-05-12T08:39:47;99972.75;;;15.33;100.00
59971;BME280;45825;45.434;9.116;2023-05-12T08:42:36;99966.34;;;15.47;100.00
59971;BME280;45825;45.434;9.116;2023-05-12T08:45:01;99968.25;;;15.57;100.00
59971;BME280;45825;45.434;9.116;2023-05-12T08:47:29;99963.94;;;15.56;100.00
59971;BME280;45825;45.434;9.116;2023-05-12T08:50:01;99969.19;;;15.67;100.00
59971;BME280;45825;45.434;9.116;2023-05-12T08:52:34;99979.22;;;15.63;100.00
59971;BME280;45825;45.434;9.116;2023-05-12T08:55:00;99979.94;;;15.54;100.00
59971;BME280;45825;45.434;9.116;2023-05-12T08:57:26;99971.44;;;15.50;100.00
59971;BME280;45825;45.434;9.116;2023-05-12T08:59:55;99982.59;;;15.54;100.00
59971;BME280;45825;45.434;9.116;2023-05-12T09:02:22;99976.22;;;15.57;100.00
59971;BME280;45825;45.434;9.116;2023-05-12T09:04:51;99981.59;;;15.78;100.00
59971;BME280;45825;45.434;9.116;2023-05-12T09:07:17;99976.38;;;15.88;100.00
59971;BME280;45825;45.434;9.116;2023-05-12T09:09:44;99976.88;;;15.93;100.00
59971;BME280;45825;45.434;9.116;2023-05-12T09:12:12;99974.53;;;16.00;100.00
59971;BME280;45825;45.434;9.116;2023-05-12T09:14:39;99967.13;;;16.15;100.00
59971;BME280;45825;45.434;9.116;2023-05-12T09:17:05;99973.63;;;16.11;100.00
59971;BME280;45825;45.434;9.116;2023-05-12T09:19:30;99972.94;;;16.09;100.00
59971;BME280;45825;45.434;9.116;2023-05-12T09:21:57;99974.81;;;16.18;100.00
59971;BME280;45825;45.434;9.116;2023-05-12T09:24:33;99973.13;;;16.38;100.00
59971;BME280;45825;45.434;9.116;2023-05-12T09:26:59;99966.59;;;16.42;100.00
59971;BME280;45825;45.434;9.116;2023-05-12T09:29:24;99966.06;;;16.48;100.00
59971;BME280;45825;45.434;9.116;2023-05-12T09:31:53;99969.03;;;16.55;100.00
59971;BME280;45825;45.434;9.116;2023-05-12T09:34:29;99965.09;;;16.50;100.00
59971;BME280;45825;45.434;9.116;2023-05-12T09:36:56;99964.34;;;16.38;100.00
59971;BME280;45825;45.434;9.116;2023-05-12T09:39:22;99961.56;;;16.70;100.00
59971;BME280;45825;45.434;9.116;2023-05-12T09:41:47;99959.06;;;17.00;100.00
59971;BME280;45825;45.434;9.116;2023-05-12T09:44:14;99960.84;;;16.99;100.00
59971;BME280;45825;45.434;9.116;2023-05-12T09:46:41;99961.84;;;16.98;100.00
59971;BME280;45825;45.434;9.116;2023-05-12T09:49:06;99952.81;;;17.11;100.00
59971;BME280;45825;45.434;9.116;2023-05-12T09:51:32;99954.25;;;17.25;100.00
59971;BME280;45825;45.434;9.116;2023-05-12T09:53:57;99955.25;;;17.24;100.00
59971;BME280;45825;45.434;9.116;2023-05-12T09:56:26;99949.06;;;17.33;100.00
59971;BME280;45825;45.434;9.116;2023-05-12T09:58:52;99954.91;;;17.07;100.00
59971;BME280;45825;45.434;9.116;2023-05-12T10:01:19;99959.53;;;17.15;100.00
59971;BME280;45825;45.434;9.116;2023-05-12T10:03:48;99956.66;;;17.38;100.00
59971;BME280;45825;45.434;9.116;2023-05-12T10:06:20;99952.50;;;17.65;100.00
59971;BME280;45825;45.434;9.116;2023-05-12T10:08:51;99946.19;;;17.95;100.00
59971;BME280;45825;45.434;9.116;2023-05-12T10:11:18;99947.88;;;17.67;100.00
59971;BME280;45825;45.434;9.116;2023-05-12T10:13:44;99952.66;;;17.73;100.00
59971;BME280;45825;45.434;9.116;2023-05-12T10:16:09;99951.53;;;17.85;100.00
59971;BME280;45825;45.434;9.116;2023-05-12T10:18:35;99939.63;;;18.09;100.00
59971;BME280;45825;45.434;9.116;2023-05-12T10:21:02;99947.16;;;18.34;100.00
59971;BME280;45825;45.434;9.116;2023-05-12T10:23:27;99940.66;;;18.56;100.00
59971;BME280;45825;45.434;9.116;2023-05-12T10:25:54;99948.63;;;18.56;100.00
59971;BME280;45825;45.434;9.116;2023-05-12T10:28:23;99949.25;;;18.40;100.00
59971;BME280;45825;45.434;9.116;2023-05-12T10:30:49;99946.31;;;18.43;100.00
59971;BME280;45825;45.434;9.116;2023-05-12T10:33:15;99943.66;;;18.81;100.00
59971;BME280;45825;45.434;9.116;2023-05-12T10:35:42;99940.19;;;18.70;100.00
59971;BME280;45825;45.434;9.116;2023-05-12T10:38:13;99939.28;;;18.80;100.00
59971;BME280;45825;45.434;9.116;2023-05-12T10:43:23;99942.06;;;18.50;100.00
59971;BME280;45825;45.434;9.116;2023-05-12T10:46:28;99938.28;;;18.53;100.00
59971;BME280;45825;45.434;9.116;2023-05-12T10:51:46;99928.72;;;18.60;100.00
59971;BME280;45825;45.434;9.116;2023-05-12T10:54:19;99930.97;;;18.55;100.00
59971;BME280;45825;45.434;9.116;2023-05-12T10:56:44;99932.41;;;18.49;100.00
59971;BME280;45825;45.434;9.116;2023-05-12T10:59:11;99934.75;;;18.52;100.00
59971;BME280;45825;45.434;9.116;2023-05-12T11:01:37;99921.34;;;18.34;100.00
59971;BME280;45825;45.434;9.116;2023-05-12T11:04:13;99925.88;;;18.24;100.00
59971;BME280;45825;45.434;9.116;2023-05-12T11:06:40;99920.44;;;18.06;100.00
59971;BME280;45825;45.434;9.116;2023-05-12T11:09:05;99925.34;;;18.00;100.00
59971;BME280;45825;45.434;9.116;2023-05-12T11:11:31;99926.31;;;18.09;100.00
59971;BME280;45825;45.434;9.116;2023-05-12T11:13:57;99928.44;;;18.06;100.00
59971;BME280;45825;45.434;9.116;2023-05-12T11:16:23;99930.34;;;18.43;100.00
59971;BME280;45825;45.434;9.116;2023-05-12T11:18:59;99930.34;;;18.81;100.00
59971;BME280;45825;45.434;9.116;2023-05-12T11:21:25;99934.25;;;18.87;100.00
59971;BME280;45825;45.434;9.116;2023-05-12T11:23:50;99933.56;;;18.75;100.00
59971;BME280;45825;45.434;9.116;2023-05-12T11:26:17;99936.75;;;18.50;100.00
59971;BME280;45825;45.434;9.116;2023-05-12T11:28:42;99938.41;;;18.51;100.00
59971;BME280;45825;45.434;9.116;2023-05-12T11:31:07;99932.41;;;18.49;100.00
59971;BME280;45825;45.434;9.116;2023-05-12T11:33:33;99936.69;;;18.22;100.00
59971;BME280;45825;45.434;9.116;2023-05-12T11:36:03;99937.66;;;18.21;100.00
59971;BME280;45825;45.434;9.116;2023-05-12T11:38:29;99936.97;;;18.09;100.00
59971;BME280;45825;45.434;9.116;2023-05-12T11:40:54;99936.81;;;18.01;100.00
59971;BME280;45825;45.434;9.116;2023-05-12T11:43:20;99934.56;;;17.86;100.00
59971;BME280;45825;45.434;9.116;2023-05-12T11:45:46;99931.78;;;17.68;100.00
59971;BME280;45825;45.434;9.116;2023-05-12T11:48:12;99931.63;;;17.70;100.00
59971;BME280;45825;45.434;9.116;2023-05-12T11:50:43;99930.38;;;17.74;100.00
59971;BME280;45825;45.434;9.116;2023-05-12T11:53:12;99926.47;;;17.68;100.00
59971;BME280;45825;45.434;9.116;2023-05-12T11:55:49;99929.94;;;17.49;100.00
59971;BME280;45825;45.434;9.116;2023-05-12T11:58:23;99918.06;;;17.53;100.00
59971;BME280;45825;45.434;9.116;2023-05-12T12:00:51;99918.47;;;17.68;100.00
59971;BME280;45825;45.434;9.116;2023-05-12T12:03:17;99919.16;;;17.60;100.00
59971;BME280;45825;45.434;9.116;2023-05-12T12:05:45;99919.28;;;17.49;100.00
59971;BME280;45825;45.434;9.116;2023-05-12T12:08:21;99927.97;;;17.41;100.00
59971;BME280;45825;45.434;9.116;2023-05-12T12:10:46;99929.63;;;17.33;100.00
59971;BME280;45825;45.434;9.116;2023-05-12T12:13:18;99920.97;;;17.30;100.00
59971;BME280;45825;45.434;9.116;2023-05-12T12:15:43;99944.50;;;17.35;100.00
59971;BME280;45825;45.434;9.116;2023-05-12T12:18:09;99944.84;;;16.89;100.00
59971;BME280;45825;45.434;9.116;2023-05-12T12:20:34;99945.69;;;16.49;100.00
59971;BME280;45825;45.434;9.116;2023-05-12T12:23:00;99948.06;;;16.31;100.00
59971;BME280;45825;45.434;9.116;2023-05-12T12:25:26;99936.63;;;16.30;100.00
59971;BME280;45825;45.434;9.116;2023-05-12T12:27:51;99936.75;;;16.29;100.00
59971;BME280;45825;45.434;9.116;2023-05-12T12:30:17;99946.34;;;16.20;100.00
59971;BME280;45825;45.434;9.116;2023-05-12T12:32:43;99951.19;;;16.15;100.00
59971;BME280;45825;45.434;9.116;2023-05-12T12:35:09;99952.44;;;16.32;100.00
59971;BME280;45825;45.434;9.116;2023-05-12T12:37:35;99948.53;;;16.36;100.00
59971;BME280;45825;45.434;9.116;2023-05-12T12:40:01;99965.56;;;16.55;100.00
59971;BME280;45825;45.434;9.116;2023-05-12T12:42:35;99961.06;;;16.55;100.00
59971;BME280;45825;45.434;9.116;2023-05-12T12:45:03;99961.91;;;16.56;100.00
59971;BME280;45825;45.434;9.116;2023-05-12T12:47:28;99973.16;;;16.69;100.00
59971;BME280;45825;45.434;9.116;2023-05-12T12:49:53;99967.53;;;16.62;100.00
59971;BME280;45825;45.434;9.116;2023-05-12T12:52:19;99957.75;;;16.63;100.00